Aérodrome :
LOGIN :

S'inscrire | Disclaimer

   EN    FR    IT 

 










Légende :    VFR   VFR Marginal   IFR   IFR Intensif   IFR Très Intensif
Visi : 
Plafond : 
>= 8 km
>= 3000ft
5 à 8 km
1000 à 3000 ft
1500m à 5 km
500 à 1000 ft
800 à 1500m
200 à 500 ft
< 800m
< 200 ft
Symboles :   Orages  Brouillard  Fortes neiges  Fortes précipitations  Vent > 20 kt
SIGMETs :   Divers  Orages  Givrage  Turbulence  Onde Orograph.  Cendres Volcan.






- Altitude de l'aérodrome : 1910 ft
- Code IATA : RDZ


LFCR - Rodez

DERNIER METAR :
  • 220600Z AUTO 13019KT CAVOK 16/13 Q1014 BECMG 14018G33KT

METARs EXPIRÉS :
  • 220530Z AUTO 14019KT 9999 ///TCU 16/12 Q1014 BECMG 14018G33KT NSC
  • 220500Z AUTO 14021KT CAVOK 16/12 Q1014 TEMPO BKN013 SCT060TCU
  • 220430Z AUTO 14020G33KT CAVOK 16/12 Q1014 TEMPO BKN013 SCT060TCU BECMG 13016KT
  • 220400Z AUTO 14021KT CAVOK 16/12 Q1014 NOSIG
  • 220330Z AUTO 14018KT CAVOK 16/12 Q1014 NOSIG

TAF TAF LFCR
Valide du 22 à 06h jusqu'au 23 à 06h UTC


220500Z 2206/2306 14018G33KT CAVOK
BECMG 2222/2224 13012KT OVC012
TEMPO 2300/2304 SCT015



MET'MAP, la Météo Aéronautique d'un coup d'oeil ! - Copyright ORBIFLY Décembre 2007 - Disclaimer

ORBIFLY MET'MAP TEAM :

Programmation & Développement : Alexandra Zaïnal
Sur une idée originale de : Baudouin d'Aumeries
Assistance à la programmation : Marc-Olivier Méhu
Soutien technique & logistique : Manuel Goepfert

Contact : metmap@orbifly.com




SOURCES & CREDITS :

   NOAA